Terminal Aerodrome Forecast
Issued by NWS

Home | Current Version | Previous Version | Text Only | Print | Product List | Glossary Off
Versions: 1 2 3 4 5 6 7 8 9 10 11 12 13 14 15 16 17 18 19 20 21

000
FTUS43 KMPX 220520
TAFRNH
TAF
KRNH 220520Z 2206/2306 00000KT 1/4SM FG VV002
     FM221600 VRB03KT 2SM BR OVC003
     FM221900 31006KT 4SM BR OVC007
     FM230100 29004KT 2SM BR OVC005=

USA.gov is the U.S. government's official web portal to all federal, state and local government web resources and services.